Date,TemperatureHighF,TemperatureAvgF,TemperatureLowF,DewpointHighF,DewpointAvgF,DewpointLowF,HumidityHigh,HumidityAvg,HumidityLow,PressureMaxIn,PressureMinIn,WindSpeedMaxMPH,WindSpeedAvgMPH,GustSpeedMaxMPH,PrecipitationSumIn
2013-7-1,71,63,61,69,63,61,100,99,91,29.95,29.77,12,2,19,0.03
2013-7-2,66,60,57,66,60,56,100,99,97,30.07,29.94,7,3,15,0.28
2013-7-3,67,61,57,64,60,57,100,97,88,30.03,29.96,13,5,17,0.02
2013-7-4,82,70,61,72,67,61,100,92,67,29.99,29.89,15,2,24,0.00
2013-7-5,88,75,66,74,70,65,100,85,59,29.93,29.83,8,3,13,0.21
2013-7-6,86,77,71,73,70,69,99,82,58,29.85,29.74,6,3,14,0.21
2013-7-7,86,78,69,69,66,63,80,68,53,29.78,29.72,8,3,14,0.00
2013-7-8,77,68,60,69,62,-100,95,84,64,29.92,29.74,8,2,13,0.00
2013-7-9,69,64,61,66,61,59,99,91,82,29.97,29.91,7,2,11,0.01
2013-7-10,65,60,59,62,57,-100,100,95,91,29.94,29.76,7,4,12,0.01
2013-7-20,72,60,68,66,42,-100,90,73,79,29.62,29.49,6,4,13,0.01
2013-7-21,72,65,61,64,56,53,87,73,60,29.88,29.61,14,5,19,0.01
2013-7-22,69,63,58,64,58,55,96,85,61,29.89,29.80,11,2,15,0.00
2013-7-23,66,62,59,66,62,57,100,99,92,29.81,29.38,5,2,10,0.41
2013-7-24,75,66,59,71,64,52,100,93,73,29.81,29.40,13,4,17,0.06
2013-7-25,69,62,53,60,55,50,96,78,64,29.97,29.81,9,3,16,0.01
2013-7-26,67,62,60,67,61,-100,100,99,95,29.95,29.69,11,6,19,0.85
2013-7-27,75,65,59,66,62,58,100,89,72,29.90,29.70,12,5,17,0.02
2013-7-28,69,64,59,65,62,59,100,95,87,29.91,29.86,8,2,15,0.01
2013-7-29,69,63,59,66,62,59,100,97,90,29.92,29.83,9,3,13,0.01
2013-7-30,77,67,62,66,63,57,100,87,60,29.90,29.84,8,2,13,0.01
2013-7-31,75,66,60,62,56,-100,88,76,60,29.95,29.87,15,5,21,0.01